createdAt,value
2023-08-14T00:00:30.914Z,17.97
2023-08-14T00:01:30.937Z,17.96
2023-08-14T00:02:30.873Z,17.97
2023-08-14T00:03:30.863Z,17.97
2023-08-14T00:04:30.849Z,17.98
2023-08-14T00:05:30.836Z,17.99
2023-08-14T00:06:30.854Z,18.01
2023-08-14T00:07:30.785Z,18.03
2023-08-14T00:08:30.774Z,18.06
2023-08-14T00:09:30.787Z,18.08
2023-08-14T00:10:30.743Z,18.10
2023-08-14T00:11:30.727Z,18.12
2023-08-14T00:12:30.784Z,18.15
2023-08-14T00:13:30.704Z,18.18
2023-08-14T00:14:30.747Z,18.21
2023-08-14T00:15:30.742Z,18.23
2023-08-14T00:16:30.672Z,18.25
2023-08-14T00:17:30.671Z,18.25
2023-08-14T00:18:30.751Z,18.24
2023-08-14T00:19:30.641Z,18.23
2023-08-14T00:20:30.638Z,18.22
2023-08-14T00:21:30.641Z,18.22
2023-08-14T00:22:30.597Z,18.22
2023-08-14T00:23:30.605Z,18.23
2023-08-14T00:24:30.635Z,18.23
2023-08-14T00:25:30.546Z,18.23
2023-08-14T00:26:30.570Z,18.23
2023-08-14T00:27:30.528Z,18.22
2023-08-14T00:28:30.537Z,18.22
2023-08-14T00:29:30.547Z,18.21
2023-08-14T00:30:30.533Z,18.19
2023-08-14T00:31:30.559Z,18.18
2023-08-14T00:32:30.566Z,18.17
2023-08-14T00:33:30.441Z,18.16
2023-08-14T00:34:30.436Z,18.15
2023-08-14T00:35:30.461Z,18.14
2023-08-14T00:36:30.444Z,18.12
2023-08-14T00:37:30.389Z,18.10
2023-08-14T00:38:30.381Z,18.07
2023-08-14T00:39:30.389Z,18.05
2023-08-14T00:40:30.355Z,18.01
2023-08-14T00:41:30.361Z,17.98
2023-08-14T00:42:30.354Z,17.94
2023-08-14T00:43:30.319Z,17.91
2023-08-14T00:44:30.337Z,17.88
2023-08-14T00:45:44.467Z,17.85
2023-08-14T00:46:30.368Z,17.83
2023-08-14T00:47:30.314Z,17.81
2023-08-14T00:48:30.313Z,17.79
2023-08-14T00:49:30.235Z,17.78
2023-08-14T00:50:30.222Z,17.77
2023-08-14T00:51:30.317Z,17.76
2023-08-14T00:52:30.225Z,17.75
2023-08-14T00:53:30.206Z,17.74
2023-08-14T00:54:30.207Z,17.73
2023-08-14T00:55:30.190Z,17.72
2023-08-14T00:56:30.147Z,17.70
2023-08-14T00:57:30.152Z,17.68
2023-08-14T00:58:30.174Z,17.66
2023-08-14T00:59:30.149Z,17.64
2023-08-14T01:00:30.146Z,17.61
2023-08-14T01:01:30.078Z,17.58
2023-08-14T01:02:30.106Z,17.55
2023-08-14T01:03:30.105Z,17.52
2023-08-14T01:04:30.073Z,17.51
2023-08-14T01:05:30.026Z,17.53
2023-08-14T01:06:30.076Z,17.57
2023-08-14T01:07:29.999Z,17.60
2023-08-14T01:08:30.006Z,17.62
2023-08-14T01:09:30.000Z,17.63
2023-08-14T01:10:30.012Z,17.65
2023-08-14T01:11:29.984Z,17.68
2023-08-14T01:12:29.998Z,17.71
2023-08-14T01:13:29.935Z,17.74
2023-08-14T01:14:29.912Z,17.75
2023-08-14T01:15:29.924Z,17.75
2023-08-14T01:16:29.911Z,17.74
2023-08-14T01:17:31.771Z,17.73
2023-08-14T01:18:29.892Z,17.72
2023-08-14T01:19:29.890Z,17.73
2023-08-14T01:20:29.848Z,17.74
2023-08-14T01:21:29.852Z,17.77
2023-08-14T01:22:29.849Z,17.79
2023-08-14T01:23:29.817Z,17.80
2023-08-14T01:24:29.817Z,17.81
2023-08-14T01:25:29.807Z,17.82
2023-08-14T01:26:29.763Z,17.83
2023-08-14T01:27:29.743Z,17.83
2023-08-14T01:28:29.741Z,17.83
2023-08-14T01:29:29.718Z,17.83
2023-08-14T01:30:29.784Z,17.83
2023-08-14T01:31:29.728Z,17.83
2023-08-14T01:32:29.738Z,17.82
2023-08-14T01:33:29.696Z,17.82
2023-08-14T01:34:29.668Z,17.83
2023-08-14T01:35:29.648Z,17.86
2023-08-14T01:36:29.706Z,17.88
2023-08-14T01:37:29.640Z,17.89
2023-08-14T01:38:29.611Z,17.91
2023-08-14T01:39:29.593Z,17.93
2023-08-14T01:40:29.623Z,17.95
2023-08-14T01:41:29.638Z,17.96
2023-08-14T01:42:29.594Z,17.97
2023-08-14T01:43:29.559Z,17.97
2023-08-14T01:44:29.561Z,17.97
2023-08-14T01:45:29.550Z,17.96
2023-08-14T01:46:29.529Z,17.95
2023-08-14T01:47:29.525Z,17.94
2023-08-14T01:48:29.502Z,17.93
2023-08-14T01:49:29.477Z,17.92
2023-08-14T01:50:29.472Z,17.91
2023-08-14T01:51:29.453Z,17.90
2023-08-14T01:52:29.425Z,17.88
2023-08-14T01:53:29.434Z,17.86
2023-08-14T01:54:29.432Z,17.84
2023-08-14T01:55:29.387Z,17.82
2023-08-14T01:56:29.392Z,17.79
2023-08-14T01:57:29.353Z,17.77
2023-08-14T01:58:29.353Z,17.75
2023-08-14T01:59:29.331Z,17.72
2023-08-14T02:00:29.351Z,17.70
2023-08-14T02:01:29.340Z,17.68
2023-08-14T02:02:29.376Z,17.68
2023-08-14T02:03:29.438Z,17.67
2023-08-14T02:04:29.300Z,17.67
2023-08-14T02:05:29.272Z,17.67
2023-08-14T02:06:29.306Z,17.66
2023-08-14T02:07:29.220Z,17.65
2023-08-14T02:08:29.212Z,17.64
2023-08-14T02:09:29.206Z,17.62
2023-08-14T02:10:29.205Z,17.59
2023-08-14T02:11:29.194Z,17.56
2023-08-14T02:12:29.196Z,17.52
2023-08-14T02:13:29.151Z,17.48
2023-08-14T02:14:29.141Z,17.44
2023-08-14T02:15:29.144Z,17.40
2023-08-14T02:16:29.182Z,17.36
2023-08-14T02:17:29.106Z,17.33
2023-08-14T02:18:29.148Z,17.30
2023-08-14T02:19:29.110Z,17.28
2023-08-14T02:20:29.089Z,17.25
2023-08-14T02:21:29.085Z,17.22
2023-08-14T02:22:29.055Z,17.19
2023-08-14T02:23:29.027Z,17.16
2023-08-14T02:24:29.060Z,17.14
2023-08-14T02:25:29.016Z,17.13
2023-08-14T02:26:29.001Z,17.13
2023-08-14T02:27:28.970Z,17.14
2023-08-14T02:28:28.955Z,17.16
2023-08-14T02:29:28.971Z,17.17
2023-08-14T02:30:28.989Z,17.19
2023-08-14T02:31:28.984Z,17.21
2023-08-14T02:32:28.927Z,17.23
2023-08-14T02:33:28.931Z,17.26
2023-08-14T02:34:28.882Z,17.28
2023-08-14T02:35:28.866Z,17.30
2023-08-14T02:36:28.923Z,17.33
2023-08-14T02:37:28.836Z,17.35
2023-08-14T02:38:28.830Z,17.37
2023-08-14T02:39:28.818Z,17.39
2023-08-14T02:40:28.803Z,17.40
2023-08-14T02:41:28.802Z,17.40
2023-08-14T02:42:28.832Z,17.40
2023-08-14T02:43:28.759Z,17.40
2023-08-14T02:44:28.768Z,17.40
2023-08-14T02:45:28.773Z,17.39
2023-08-14T02:46:28.716Z,17.39
2023-08-14T02:47:28.795Z,17.38
2023-08-14T02:48:28.720Z,17.38
2023-08-14T02:49:28.678Z,17.37
2023-08-14T02:50:28.677Z,17.36
2023-08-14T02:51:28.647Z,17.35
2023-08-14T02:52:28.638Z,17.35
2023-08-14T02:53:28.648Z,17.35
2023-08-14T02:54:28.636Z,17.34
2023-08-14T02:55:28.622Z,17.33
2023-08-14T02:56:28.581Z,17.32
2023-08-14T02:57:28.563Z,17.31
2023-08-14T02:58:28.568Z,17.30
2023-08-14T02:59:28.553Z,17.29
2023-08-14T03:00:28.584Z,17.29
2023-08-14T03:01:28.536Z,17.29
2023-08-14T03:02:28.639Z,17.30
2023-08-14T03:03:28.553Z,17.32
2023-08-14T03:04:28.508Z,17.33
2023-08-14T03:05:28.485Z,17.33
2023-08-14T03:06:28.511Z,17.33
2023-08-14T03:07:28.434Z,17.31
2023-08-14T03:08:28.428Z,17.30
2023-08-14T03:09:28.448Z,17.30
2023-08-14T03:10:28.420Z,17.30
2023-08-14T03:11:28.387Z,17.31
2023-08-14T03:12:28.419Z,17.32
2023-08-14T03:13:28.395Z,17.33
2023-08-14T03:14:28.417Z,17.34
2023-08-14T03:15:28.352Z,17.34
2023-08-14T03:16:28.387Z,17.34
2023-08-14T03:17:28.338Z,17.34
2023-08-14T03:18:28.338Z,17.34
2023-08-14T03:19:28.312Z,17.34
2023-08-14T03:20:28.302Z,17.34
2023-08-14T03:21:28.279Z,17.32
2023-08-14T03:22:28.258Z,17.30
2023-08-14T03:23:28.266Z,17.25
2023-08-14T03:24:28.265Z,17.19
2023-08-14T03:25:28.209Z,17.13
2023-08-14T03:26:28.227Z,17.08
2023-08-14T03:27:28.184Z,17.03
2023-08-14T03:28:28.193Z,16.99
2023-08-14T03:29:28.179Z,16.95
2023-08-14T03:30:28.176Z,16.92
2023-08-14T03:31:28.140Z,16.89
2023-08-14T03:32:28.125Z,16.86
2023-08-14T03:33:28.117Z,16.83
2023-08-14T03:34:28.115Z,16.80
2023-08-14T03:35:28.070Z,16.77
2023-08-14T03:36:28.106Z,16.75
2023-08-14T03:37:28.062Z,16.73
2023-08-14T03:38:28.065Z,16.71
2023-08-14T03:39:28.027Z,16.69
2023-08-14T03:40:28.035Z,16.69
2023-08-14T03:41:28.028Z,16.69
2023-08-14T03:42:28.016Z,16.70
2023-08-14T03:43:28.007Z,16.70
2023-08-14T03:44:27.980Z,16.70
2023-08-14T03:45:27.970Z,16.70
2023-08-14T03:46:27.984Z,16.69
2023-08-14T03:47:27.966Z,16.68
2023-08-14T03:48:27.959Z,16.67
2023-08-14T03:49:27.922Z,16.65
2023-08-14T03:50:27.912Z,16.64
2023-08-14T03:51:27.863Z,16.64
2023-08-14T03:52:27.851Z,16.64
2023-08-14T03:53:27.873Z,16.65
2023-08-14T03:54:27.861Z,16.67
2023-08-14T03:55:27.812Z,16.69
2023-08-14T03:56:27.829Z,16.70
2023-08-14T03:57:27.809Z,16.70
2023-08-14T03:58:27.801Z,16.71
2023-08-14T03:59:27.766Z,16.71
2023-08-14T04:00:27.814Z,16.71
2023-08-14T04:01:27.763Z,16.71
2023-08-14T04:02:27.804Z,16.71
2023-08-14T04:03:27.791Z,16.71
2023-08-14T04:04:27.706Z,16.71
2023-08-14T04:05:27.691Z,16.71
2023-08-14T04:06:27.768Z,16.70
2023-08-14T04:07:27.663Z,16.71
2023-08-14T04:08:27.687Z,16.71
2023-08-14T04:09:27.637Z,16.72
2023-08-14T04:10:27.660Z,16.73
2023-08-14T04:11:27.632Z,16.74
2023-08-14T04:12:27.656Z,16.75
2023-08-14T04:13:27.614Z,16.75
2023-08-14T04:14:27.581Z,16.75
2023-08-14T04:15:27.573Z,16.76
2023-08-14T04:16:27.613Z,16.76
2023-08-14T04:17:27.525Z,16.75
2023-08-14T04:18:27.586Z,16.75
2023-08-14T04:19:27.528Z,16.75
2023-08-14T04:20:27.523Z,16.75
2023-08-14T04:21:27.482Z,16.76
2023-08-14T04:22:27.463Z,16.77
2023-08-14T04:23:27.445Z,16.78
2023-08-14T04:24:27.469Z,16.80
2023-08-14T04:25:27.445Z,16.82
2023-08-14T04:26:27.442Z,16.84
2023-08-14T04:27:27.394Z,16.87
2023-08-14T04:28:27.412Z,16.90
2023-08-14T04:29:27.392Z,16.93
2023-08-14T04:30:27.404Z,16.97
2023-08-14T04:31:27.405Z,16.99
2023-08-14T04:32:27.375Z,17.01
2023-08-14T04:33:27.350Z,17.03
2023-08-14T04:34:27.339Z,17.03
2023-08-14T04:35:28.643Z,17.04
2023-08-14T04:36:27.319Z,17.05
2023-08-14T04:37:27.269Z,17.06
2023-08-14T04:38:27.279Z,17.06
2023-08-14T04:39:27.253Z,17.08
2023-08-14T04:40:27.261Z,17.09
2023-08-14T04:41:27.217Z,17.11
2023-08-14T04:42:27.260Z,17.14
2023-08-14T04:43:27.187Z,17.16
2023-08-14T04:44:27.182Z,17.18
2023-08-14T04:45:27.192Z,17.19
2023-08-14T04:46:27.214Z,17.20
2023-08-14T04:47:27.273Z,17.20
2023-08-14T04:48:27.239Z,17.21
2023-08-14T04:49:27.126Z,17.22
2023-08-14T04:50:27.110Z,17.23
2023-08-14T04:51:27.088Z,17.25
2023-08-14T04:52:27.073Z,17.27
2023-08-14T04:53:27.094Z,17.28
2023-08-14T04:54:27.124Z,17.30
2023-08-14T04:55:27.043Z,17.31
2023-08-14T04:56:27.026Z,17.32
2023-08-14T04:57:27.044Z,17.33
2023-08-14T04:58:27.023Z,17.34
2023-08-14T04:59:26.983Z,17.36
2023-08-14T05:00:27.080Z,17.37
2023-08-14T05:01:27.085Z,17.38
2023-08-14T05:02:26.966Z,17.39
2023-08-14T05:03:26.930Z,17.40
2023-08-14T05:04:26.943Z,17.41
2023-08-14T05:05:26.924Z,17.42
2023-08-14T05:06:26.958Z,17.43
2023-08-14T05:07:27.858Z,17.44
2023-08-14T05:08:26.866Z,17.45
2023-08-14T05:09:27.980Z,17.46
2023-08-14T05:10:26.859Z,17.47
2023-08-14T05:11:26.829Z,17.48
2023-08-14T05:12:26.850Z,17.50
2023-08-14T05:13:26.819Z,17.52
2023-08-14T05:14:26.817Z,17.53
2023-08-14T05:15:26.801Z,17.55
2023-08-14T05:16:26.839Z,17.57
2023-08-14T05:17:26.791Z,17.59
2023-08-14T05:18:26.773Z,17.61
2023-08-14T05:19:26.726Z,17.62
2023-08-14T05:20:26.743Z,17.64
2023-08-14T05:21:26.724Z,17.66
2023-08-14T05:22:26.694Z,17.68
2023-08-14T05:23:26.701Z,17.70
2023-08-14T05:24:26.701Z,17.73
2023-08-14T05:25:26.682Z,17.76
2023-08-14T05:26:26.646Z,17.78
2023-08-14T05:27:26.650Z,17.80
2023-08-14T05:28:26.660Z,17.81
2023-08-14T05:29:26.603Z,17.84
2023-08-14T05:30:26.633Z,17.86
2023-08-14T05:31:26.600Z,17.89
2023-08-14T05:32:26.587Z,17.93
2023-08-14T05:33:26.550Z,17.96
2023-08-14T05:34:26.528Z,18.00
2023-08-14T05:35:26.545Z,18.03
2023-08-14T05:36:26.593Z,18.05
2023-08-14T05:37:26.498Z,18.07
2023-08-14T05:38:26.483Z,18.09
2023-08-14T05:39:26.496Z,18.12
2023-08-14T05:40:26.457Z,18.13
2023-08-14T05:41:26.570Z,18.13
2023-08-14T05:42:26.518Z,18.13
2023-08-14T05:43:26.458Z,18.12
2023-08-14T05:44:26.428Z,18.10
2023-08-14T05:45:26.412Z,18.08
2023-08-14T05:46:26.399Z,18.07
2023-08-14T05:47:26.476Z,18.06
2023-08-14T05:48:26.396Z,18.06
2023-08-14T05:49:26.375Z,18.06
2023-08-14T05:50:26.357Z,18.06
2023-08-14T05:51:26.316Z,18.05
2023-08-14T05:52:26.296Z,18.06
2023-08-14T05:53:26.308Z,18.07
2023-08-14T05:54:26.329Z,18.08
2023-08-14T05:55:26.259Z,18.08
2023-08-14T05:56:26.294Z,18.09
2023-08-14T05:57:26.237Z,18.09
2023-08-14T05:58:26.253Z,18.08
2023-08-14T05:59:26.239Z,18.08
2023-08-14T06:00:26.246Z,18.07
2023-08-14T06:01:26.248Z,18.08
2023-08-14T06:02:26.196Z,18.09
2023-08-14T06:03:41.952Z,18.10
2023-08-14T06:04:26.249Z,18.11
2023-08-14T06:05:26.148Z,18.13
2023-08-14T06:06:26.200Z,18.13
2023-08-14T06:07:26.112Z,18.14
2023-08-14T06:08:26.140Z,18.16
2023-08-14T06:09:26.122Z,18.19
2023-08-14T06:10:26.082Z,18.23
2023-08-14T06:11:26.121Z,18.28
2023-08-14T06:12:26.081Z,18.35
2023-08-14T06:13:26.070Z,18.42
2023-08-14T06:14:26.078Z,18.51
2023-08-14T06:15:26.041Z,18.58
2023-08-14T06:16:26.016Z,18.65
2023-08-14T06:17:26.037Z,18.75
2023-08-14T06:18:26.020Z,18.87
2023-08-14T06:19:25.972Z,19.01
2023-08-14T06:20:25.943Z,19.14
2023-08-14T06:21:25.990Z,19.26
2023-08-14T06:22:25.911Z,19.35
2023-08-14T06:23:25.924Z,19.45
2023-08-14T06:24:25.920Z,19.61
2023-08-14T06:25:25.907Z,19.79
2023-08-14T06:26:25.858Z,19.98
2023-08-14T06:27:25.900Z,20.21
2023-08-14T06:28:25.862Z,20.46
2023-08-14T06:29:25.828Z,20.71
2023-08-14T06:30:25.851Z,20.93
2023-08-14T06:31:25.857Z,21.17
2023-08-14T06:32:25.822Z,21.39
2023-08-14T06:33:25.780Z,21.52
2023-08-14T06:34:25.771Z,21.61
2023-08-14T06:35:25.775Z,21.73
2023-08-14T06:36:25.781Z,21.93
2023-08-14T06:37:25.720Z,22.13
2023-08-14T06:38:25.742Z,22.34
2023-08-14T06:39:25.718Z,22.54
2023-08-14T06:40:25.713Z,22.74
2023-08-14T06:41:25.695Z,22.94
2023-08-14T06:42:25.724Z,23.10
2023-08-14T06:43:25.674Z,23.20
2023-08-14T06:44:25.655Z,23.28
2023-08-14T06:45:25.651Z,23.31
2023-08-14T06:46:25.647Z,23.30
2023-08-14T06:47:25.693Z,23.25
2023-08-14T06:48:25.618Z,23.24
2023-08-14T06:49:25.601Z,23.33
2023-08-14T06:50:25.574Z,23.40
2023-08-14T06:51:25.580Z,23.43
2023-08-14T06:52:25.544Z,23.46
2023-08-14T06:53:25.521Z,23.47
2023-08-14T06:54:25.589Z,23.51
2023-08-14T06:55:25.503Z,23.65
2023-08-14T06:56:25.508Z,23.85
2023-08-14T06:57:25.510Z,24.09
2023-08-14T06:58:25.459Z,24.31
2023-08-14T06:59:25.468Z,24.49
2023-08-14T07:00:25.467Z,24.48
2023-08-14T07:01:25.425Z,24.29
2023-08-14T07:02:25.409Z,24.07
2023-08-14T07:03:25.528Z,23.90
2023-08-14T07:04:25.395Z,23.85
2023-08-14T07:05:25.399Z,23.92
2023-08-14T07:06:25.420Z,24.04
2023-08-14T07:07:25.355Z,24.14
2023-08-14T07:08:25.347Z,24.17
2023-08-14T07:09:25.322Z,24.14
2023-08-14T07:10:25.314Z,24.09
2023-08-14T07:11:25.307Z,24.07
2023-08-14T07:12:25.349Z,24.06
2023-08-14T07:13:25.348Z,24.02
2023-08-14T07:14:30.570Z,23.98
2023-08-14T07:15:25.269Z,24.05
2023-08-14T07:16:25.283Z,24.19
2023-08-14T07:17:25.260Z,24.36
2023-08-14T07:18:25.257Z,24.59
2023-08-14T07:19:25.225Z,24.89
2023-08-14T07:20:26.456Z,25.31
2023-08-14T07:21:25.201Z,25.74
2023-08-14T07:22:25.878Z,26.19
2023-08-14T07:23:25.174Z,26.78
2023-08-14T07:24:25.173Z,27.39
2023-08-14T07:25:25.174Z,27.81
2023-08-14T07:26:25.123Z,28.09
2023-08-14T07:27:25.124Z,28.45
2023-08-14T07:28:25.094Z,28.83
2023-08-14T07:29:25.079Z,29.02
2023-08-14T07:30:25.334Z,29.04
2023-08-14T07:31:25.107Z,29.21
2023-08-14T07:32:25.092Z,29.56
2023-08-14T07:33:25.028Z,29.90
2023-08-14T07:34:25.030Z,30.17
2023-08-14T07:35:25.049Z,30.27
2023-08-14T07:36:25.074Z,30.18
2023-08-14T07:37:25.006Z,29.93
2023-08-14T07:38:25.007Z,29.52
2023-08-14T07:39:25.011Z,29.00
2023-08-14T07:40:24.976Z,28.64
2023-08-14T07:41:24.950Z,28.71
2023-08-14T07:42:24.983Z,29.07
2023-08-14T07:43:24.959Z,29.42
2023-08-14T07:44:24.912Z,29.52
2023-08-14T07:45:24.954Z,29.36
2023-08-14T07:46:25.004Z,28.98
2023-08-14T07:47:24.924Z,28.37
2023-08-14T07:48:24.900Z,27.74
2023-08-14T07:49:24.878Z,27.48
2023-08-14T07:50:24.935Z,27.63
2023-08-14T07:51:24.836Z,28.07
2023-08-14T07:52:24.833Z,28.63
2023-08-14T07:53:24.831Z,29.24
2023-08-14T07:54:24.873Z,29.75
2023-08-14T07:55:24.849Z,30.28
2023-08-14T07:56:24.787Z,30.71
2023-08-14T07:57:24.802Z,30.74
2023-08-14T07:58:24.792Z,30.54
2023-08-14T07:59:24.758Z,30.30
2023-08-14T08:00:24.848Z,29.91
2023-08-14T08:01:24.754Z,29.41
2023-08-14T08:02:25.033Z,28.97
2023-08-14T08:03:24.714Z,28.60
2023-08-14T08:04:27.147Z,28.25
2023-08-14T08:05:24.704Z,27.95
2023-08-14T08:06:24.724Z,27.77
2023-08-14T08:07:25.789Z,27.74
2023-08-14T08:08:24.689Z,27.71
2023-08-14T08:09:24.652Z,27.46
2023-08-14T08:10:24.687Z,27.06
2023-08-14T08:11:24.649Z,26.74
2023-08-14T08:12:24.640Z,26.57
2023-08-14T08:13:24.605Z,26.48
2023-08-14T08:14:24.582Z,26.40
2023-08-14T08:15:24.599Z,26.32
2023-08-14T08:16:24.567Z,26.25
2023-08-14T08:17:25.143Z,26.14
2023-08-14T08:18:24.574Z,26.00
2023-08-14T08:19:24.532Z,25.86
2023-08-14T08:21:24.561Z,25.55
2023-08-14T08:22:24.520Z,25.48
2023-08-14T08:23:24.526Z,25.44
2023-08-14T08:24:24.519Z,25.43
2023-08-14T08:25:24.459Z,25.46
2023-08-14T08:26:24.433Z,25.56
2023-08-14T08:27:24.471Z,25.68
2023-08-14T08:28:24.433Z,25.86
2023-08-14T08:29:24.407Z,26.15
2023-08-14T08:30:24.414Z,26.59
2023-08-14T08:31:24.428Z,27.20
2023-08-14T08:32:24.386Z,27.87
2023-08-14T08:33:27.889Z,28.57
2023-08-14T08:34:24.350Z,29.30
2023-08-14T08:35:24.446Z,29.93
2023-08-14T08:36:24.371Z,30.34
2023-08-14T08:37:24.343Z,30.53
2023-08-14T08:38:24.318Z,30.56
2023-08-14T08:39:24.310Z,30.68
2023-08-14T08:40:24.586Z,30.86
2023-08-14T08:41:24.296Z,31.11
2023-08-14T08:42:24.385Z,31.48
2023-08-14T08:43:24.308Z,31.82
2023-08-14T08:44:24.363Z,32.01
2023-08-14T08:45:24.281Z,31.80
2023-08-14T08:46:24.300Z,31.32
2023-08-14T08:47:24.273Z,30.89
2023-08-14T08:48:24.299Z,30.31
2023-08-14T08:49:24.228Z,29.62
2023-08-14T08:50:24.220Z,29.25
2023-08-14T08:51:24.212Z,29.31
2023-08-14T08:52:24.272Z,29.66
2023-08-14T08:53:24.193Z,30.16
2023-08-14T08:54:24.250Z,30.63
2023-08-14T08:55:24.327Z,30.90
2023-08-14T08:56:24.175Z,31.10
2023-08-14T08:57:24.263Z,31.39
2023-08-14T08:58:24.125Z,31.50
2023-08-14T08:59:24.175Z,31.35
2023-08-14T09:00:25.844Z,31.06
2023-08-14T09:01:24.135Z,30.58
2023-08-14T09:02:24.329Z,29.99
2023-08-14T09:03:24.169Z,29.58
2023-08-14T09:04:24.148Z,29.55
2023-08-14T09:05:24.126Z,29.84
2023-08-14T09:06:24.116Z,30.42
2023-08-14T09:07:24.071Z,31.15
2023-08-14T09:08:24.061Z,31.76
2023-08-14T09:09:24.034Z,32.03
2023-08-14T09:10:24.029Z,32.14
2023-08-14T09:11:24.041Z,32.15
2023-08-14T09:12:24.057Z,32.23
2023-08-14T09:13:31.541Z,32.56
2023-08-14T09:14:24.008Z,32.87
2023-08-14T09:15:24.022Z,33.12
2023-08-14T09:16:24.048Z,33.29
2023-08-14T09:17:24.237Z,33.45
2023-08-14T09:18:23.992Z,33.67
2023-08-14T09:19:24.020Z,34.03
2023-08-14T09:20:29.842Z,34.43
2023-08-14T09:21:23.960Z,34.86
2023-08-14T09:22:23.976Z,35.08
2023-08-14T09:23:24.064Z,35.11
2023-08-14T09:24:23.948Z,35.15
2023-08-14T09:25:23.932Z,35.30
2023-08-14T09:26:23.962Z,35.23
2023-08-14T09:27:23.905Z,35.07
2023-08-14T09:28:23.906Z,35.09
2023-08-14T09:29:23.971Z,35.09
2023-08-14T09:30:23.960Z,35.14
2023-08-14T09:31:23.868Z,35.27
2023-08-14T09:32:23.892Z,35.36
2023-08-14T09:33:23.910Z,35.34
2023-08-14T09:34:23.867Z,35.15
2023-08-14T09:35:23.862Z,34.94
2023-08-14T09:36:23.896Z,34.85
2023-08-14T09:37:23.885Z,34.87
2023-08-14T09:38:23.822Z,34.97
2023-08-14T09:39:23.832Z,35.21
2023-08-14T09:40:23.863Z,35.37
2023-08-14T09:41:23.816Z,35.50
2023-08-14T09:42:23.835Z,35.60
2023-08-14T09:43:23.814Z,35.62
2023-08-14T09:44:23.808Z,35.69
2023-08-14T09:45:23.795Z,35.82
2023-08-14T09:46:23.864Z,35.92
2023-08-14T09:47:24.030Z,35.86
2023-08-14T09:48:23.868Z,35.63
2023-08-14T09:49:23.800Z,35.26
2023-08-14T09:50:23.761Z,34.76
2023-08-14T09:51:23.739Z,34.44
2023-08-14T09:52:23.737Z,34.42
2023-08-14T09:53:23.742Z,34.36
2023-08-14T09:54:27.333Z,34.20
2023-08-14T09:55:23.753Z,34.01
2023-08-14T09:56:23.750Z,33.99
2023-08-14T09:57:26.361Z,34.20
2023-08-14T09:58:23.767Z,34.51
2023-08-14T09:59:23.679Z,34.76
2023-08-14T10:00:23.748Z,34.90
2023-08-14T10:01:23.926Z,35.03
2023-08-14T10:02:23.824Z,35.26
2023-08-14T10:03:23.679Z,35.59
2023-08-14T10:04:23.662Z,35.96
2023-08-14T10:05:23.652Z,35.93
2023-08-14T10:06:23.660Z,35.56
2023-08-14T10:07:23.747Z,35.33
2023-08-14T10:08:23.652Z,35.23
2023-08-14T10:09:23.637Z,35.05
2023-08-14T10:10:23.647Z,34.87
2023-08-14T10:11:23.608Z,34.95
2023-08-14T10:12:23.658Z,35.16
2023-08-14T10:13:23.665Z,35.20
2023-08-14T10:14:23.578Z,35.19
2023-08-14T10:15:23.625Z,35.19
2023-08-14T10:16:23.621Z,35.01
2023-08-14T10:17:23.570Z,34.87
2023-08-14T10:18:23.612Z,34.73
2023-08-14T10:19:23.573Z,34.48
2023-08-14T10:20:23.567Z,34.31
2023-08-14T10:21:23.529Z,34.35
2023-08-14T10:22:23.579Z,34.44
2023-08-14T10:23:23.536Z,34.57
2023-08-14T10:24:23.540Z,34.82
2023-08-14T10:25:23.546Z,35.16
2023-08-14T10:26:25.977Z,35.33
2023-08-14T10:27:23.522Z,35.24
2023-08-14T10:28:23.559Z,35.02
2023-08-14T10:29:23.480Z,34.74
2023-08-14T10:30:23.500Z,34.71
2023-08-14T10:31:23.495Z,34.84
2023-08-14T10:32:23.495Z,34.70
2023-08-14T10:33:23.479Z,34.69
2023-08-14T10:34:23.465Z,34.82
2023-08-14T10:35:23.460Z,34.72
2023-08-14T10:36:23.459Z,34.52
2023-08-14T10:37:23.451Z,34.33
2023-08-14T10:38:25.255Z,34.22
2023-08-14T10:40:23.439Z,34.47
2023-08-14T10:41:23.389Z,34.62
2023-08-14T10:42:23.419Z,34.76
2023-08-14T10:43:23.470Z,34.80
2023-08-14T10:44:23.369Z,34.73
2023-08-14T10:45:23.362Z,34.81
2023-08-14T10:46:23.390Z,35.06
2023-08-14T10:47:23.526Z,35.34
2023-08-14T10:48:23.418Z,35.48
2023-08-14T10:49:23.466Z,35.42
2023-08-14T10:50:23.336Z,35.15
2023-08-14T10:51:23.360Z,34.84
2023-08-14T10:52:23.372Z,34.56
2023-08-14T10:53:23.308Z,34.25
2023-08-14T10:54:23.383Z,33.99
2023-08-14T10:55:23.364Z,33.99
2023-08-14T10:56:23.306Z,34.26
2023-08-14T10:57:23.319Z,34.62
2023-08-14T10:58:23.291Z,34.88
2023-08-14T10:59:23.893Z,35.01
2023-08-14T11:00:23.300Z,35.13
2023-08-14T11:01:23.334Z,35.41
2023-08-14T11:02:23.272Z,35.76
2023-08-14T11:03:23.266Z,35.99
2023-08-14T11:04:23.368Z,36.09
2023-08-14T11:05:25.580Z,36.26
2023-08-14T11:06:23.257Z,36.50
2023-08-14T11:07:23.308Z,36.69
2023-08-14T11:08:23.238Z,36.73
2023-08-14T11:09:23.261Z,36.66
2023-08-14T11:10:23.299Z,36.29
2023-08-14T11:11:23.207Z,35.83
2023-08-14T11:12:23.232Z,35.43
2023-08-14T11:13:23.193Z,35.08
2023-08-14T11:14:23.172Z,34.82
2023-08-14T11:15:23.196Z,34.53
2023-08-14T11:16:23.276Z,34.36
2023-08-14T11:17:23.195Z,34.36
2023-08-14T11:18:23.162Z,34.47
2023-08-14T11:19:23.136Z,34.72
2023-08-14T11:20:23.186Z,34.97
2023-08-14T11:21:31.537Z,35.13
2023-08-14T11:22:23.147Z,35.06
2023-08-14T11:23:23.133Z,34.76
2023-08-14T11:24:23.171Z,34.44
2023-08-14T11:25:23.104Z,34.16
2023-08-14T11:26:23.080Z,33.95
2023-08-14T11:27:23.093Z,33.89
2023-08-14T11:28:23.083Z,34.01
2023-08-14T11:29:23.076Z,34.17
2023-08-14T11:30:26.417Z,34.30
2023-08-14T11:31:30.853Z,34.49
2023-08-14T11:32:23.714Z,34.81
2023-08-14T11:33:23.055Z,35.22
2023-08-14T11:34:23.026Z,35.57
2023-08-14T11:36:24.136Z,35.56
2023-08-14T11:37:23.198Z,35.09
2023-08-14T11:38:22.998Z,34.64
2023-08-14T11:39:23.020Z,34.45
2023-08-14T11:40:22.976Z,34.54
2023-08-14T11:41:31.303Z,34.79
2023-08-14T11:42:23.331Z,34.89
2023-08-14T11:43:22.956Z,34.79
2023-08-14T11:44:22.950Z,34.58
2023-08-14T11:45:23.031Z,34.47
2023-08-14T11:46:22.930Z,34.61
2023-08-14T11:47:23.004Z,34.74
2023-08-14T11:48:23.008Z,34.86
2023-08-14T11:49:22.931Z,35.03
2023-08-14T11:50:22.987Z,35.21
2023-08-14T11:51:22.900Z,35.43
2023-08-14T11:52:24.152Z,35.45
2023-08-14T11:53:22.910Z,35.42
2023-08-14T11:54:23.861Z,35.29
2023-08-14T11:55:22.892Z,34.98
2023-08-14T11:56:22.890Z,34.57
2023-08-14T11:57:22.845Z,34.39
2023-08-14T11:58:22.861Z,34.51
2023-08-14T11:59:22.860Z,34.67
2023-08-14T12:00:30.174Z,34.67
2023-08-14T12:01:22.899Z,34.72
2023-08-14T12:02:22.886Z,34.97
2023-08-14T12:03:22.881Z,35.27
2023-08-14T12:04:22.828Z,35.37
2023-08-14T12:05:22.866Z,35.34
2023-08-14T12:06:22.837Z,35.20
2023-08-14T12:07:22.804Z,34.91
2023-08-14T12:08:22.803Z,34.70
2023-08-14T12:09:22.777Z,34.67
2023-08-14T12:10:22.781Z,34.69
2023-08-14T12:11:22.777Z,34.74
2023-08-14T12:12:23.210Z,34.82
2023-08-14T12:13:22.726Z,34.95
2023-08-14T12:14:22.747Z,34.98
2023-08-14T12:15:24.255Z,34.79
2023-08-14T12:16:23.045Z,34.76
2023-08-14T12:17:22.795Z,35.01
2023-08-14T12:18:22.738Z,35.33
2023-08-14T12:19:22.782Z,35.65
2023-08-14T12:20:22.708Z,35.95
2023-08-14T12:21:22.689Z,36.20
2023-08-14T12:22:22.724Z,36.46
2023-08-14T12:23:24.329Z,36.68
2023-08-14T12:24:22.683Z,36.93
2023-08-14T12:25:22.651Z,37.19
2023-08-14T12:26:22.719Z,37.15
2023-08-14T12:27:22.976Z,36.95
2023-08-14T12:28:22.651Z,36.85
2023-08-14T12:29:22.762Z,36.63
2023-08-14T12:30:22.683Z,36.11
2023-08-14T12:31:22.654Z,35.44
2023-08-14T12:32:22.663Z,34.82
2023-08-14T12:33:22.601Z,34.35
2023-08-14T12:34:22.647Z,33.94
2023-08-14T12:35:22.562Z,33.48
2023-08-14T12:36:22.614Z,33.03
2023-08-14T12:37:22.941Z,32.66
2023-08-14T12:38:22.545Z,32.37
2023-08-14T12:39:22.542Z,32.10
2023-08-14T12:40:22.503Z,31.82
2023-08-14T12:41:22.508Z,31.63
2023-08-14T12:42:22.574Z,31.49
2023-08-14T12:43:30.603Z,31.33
2023-08-14T12:44:22.533Z,31.18
2023-08-14T12:45:22.468Z,31.09
2023-08-14T12:46:22.451Z,31.11
2023-08-14T12:47:22.884Z,31.21
2023-08-14T12:48:22.499Z,31.36
2023-08-14T12:49:22.431Z,31.53
2023-08-14T12:50:22.439Z,31.63
2023-08-14T12:51:22.391Z,31.66
2023-08-14T12:52:22.400Z,31.64
2023-08-14T12:53:22.374Z,31.60
2023-08-14T12:54:22.378Z,31.49
2023-08-14T12:57:22.347Z,30.94